Time;durP1;ratioP1;P1;durP2;ratioP2;P2;SDS_P1;SDS_P2;PMS_P1;PMS_P2;Temp;Humidity;BMP_temperature;BMP_pressure;BME280_temperature;BME280_humidity;BME280_pressure;Samples;Min_cycle;Max_cycle;Signal;HPM_P1;HPM_P2
2024/01/02 00:03:54;;;;;;;3.90;2.00;;;;;;;7.56;82.79;98420.16;7294393;39;20364;31
2024/01/02 00:09:29;;;;;;;4.60;1.85;;;;;;;7.57;82.28;98407.59;7296804;39;20272;31
2024/01/02 00:15:04;;;;;;;4.83;2.20;;;;;;;7.60;82.08;98402.75;7287560;39;20296;31
2024/01/02 00:25:39;;;;;;;2.85;1.85;;;;;;;7.60;82.43;98375.09;7315335;39;21371;31
2024/01/02 00:31:14;;;;;;;3.80;1.80;;;;;;;7.61;82.92;98361.50;7321374;39;20340;31
2024/01/02 00:36:34;;;;;;;6.07;1.87;;;;;;;7.63;84.07;98356.00;7288435;39;20375;31
2024/01/02 00:42:10;;;;;;;3.00;1.50;;;;;;;7.58;84.19;98336.88;7278381;39;20280;31
2024/01/02 00:47:30;;;;;;;4.35;1.65;;;;;;;7.57;85.10;98344.09;7279488;40;20265;31
2024/01/02 00:53:06;;;;;;;5.05;1.85;;;;;;;7.54;84.62;98336.41;7259118;40;20491;31
2024/01/02 00:58:42;;;;;;;5.00;1.93;;;;;;;7.49;84.86;98319.13;7256055;40;20249;31
2024/01/02 01:04:17;;;;;;;3.70;1.60;;;;;;;7.49;86.15;98309.25;7227720;40;21375;31
2024/01/02 01:09:37;;;;;;;3.07;1.60;;;;;;;7.47;86.40;98303.19;7240412;40;20335;31
2024/01/02 01:15:11;;;;;;;4.30;2.00;;;;;;;7.45;85.63;98302.56;7258599;39;20245;31
2024/01/02 01:20:46;;;;;;;2.57;1.33;;;;;;;7.45;87.22;98280.25;7226240;40;20245;31
2024/01/02 01:26:06;;;;;;;2.30;1.55;;;;;;;7.42;87.64;98286.78;7194879;40;20257;31
2024/01/02 01:31:43;;;;;;;2.85;1.50;;;;;;;7.35;88.55;98271.56;7198901;40;20345;31
2024/01/02 01:37:04;;;;;;;2.70;1.30;;;;;;;7.37;87.94;98275.72;7189339;40;20317;31
2024/01/02 01:42:24;;;;;;;3.10;1.80;;;;;;;7.35;88.37;98263.50;7221365;40;20243;31
2024/01/02 01:48:06;;;;;;;3.20;1.50;;;;;;;7.33;89.11;98258.31;7240763;40;20312;31
2024/01/02 01:53:38;;;;;;;3.87;1.43;;;;;;;7.30;89.90;98244.41;7286986;39;20256;31
2024/01/02 01:59:12;;;;;;;3.67;1.60;;;;;;;7.28;89.83;98227.69;7282073;39;20276;31
2024/01/02 02:04:50;;;;;;;4.30;1.50;;;;;;;7.25;89.96;98216.28;7286033;39;20241;31
2024/01/02 02:10:26;;;;;;;4.05;1.40;;;;;;;7.26;90.97;98211.75;7259146;40;20260;31
2024/01/02 02:16:02;;;;;;;2.45;1.40;;;;;;;7.22;91.00;98205.06;7262144;39;20408;31
2024/01/02 02:21:39;;;;;;;3.67;1.50;;;;;;;7.19;92.41;98195.53;7205425;40;20263;31
2024/01/02 02:27:16;;;;;;;2.77;1.50;;;;;;;7.20;90.98;98180.28;7181904;40;20393;31
2024/01/02 02:32:37;;;;;;;2.50;1.30;;;;;;;7.15;92.77;98186.13;7177610;40;20244;31
2024/01/02 02:38:12;;;;;;;3.50;1.43;;;;;;;7.09;93.05;98168.09;7227308;40;20260;31
2024/01/02 02:43:49;;;;;;;3.57;1.40;;;;;;;7.08;92.65;98146.81;7177294;40;20316;31
2024/01/02 02:49:09;;;;;;;4.20;1.50;;;;;;;7.12;93.72;98140.09;7160402;40;20247;31
2024/01/02 02:54:44;;;;;;;3.45;1.25;;;;;;;7.05;94.39;98123.06;7195194;40;20262;31
2024/01/02 03:06:20;;;;;;;3.56;1.40;;;;;;;7.01;94.32;98052.91;7207446;40;20263;31
2024/01/02 03:11:55;;;;;;;3.73;1.40;;;;;;;7.02;94.48;98027.78;7230602;40;20262;31
2024/01/02 03:17:17;;;;;;;3.53;1.50;;;;;;;7.00;94.53;98024.44;7253774;40;20272;31
2024/01/02 03:22:52;;;;;;;5.77;1.83;;;;;;;6.93;95.73;98006.56;7322201;39;20244;31
2024/01/02 03:28:27;;;;;;;3.20;1.30;;;;;;;6.92;96.24;98024.47;7276078;40;20249;31
2024/01/02 03:34:00;;;;;;;1.77;1.07;;;;;;;6.92;95.80;98010.25;7331986;39;20553;31
2024/01/02 03:39:37;;;;;;;1.93;1.37;;;;;;;6.86;97.15;97998.38;7277378;40;20242;31
2024/01/02 03:44:58;;;;;;;3.13;1.37;;;;;;;6.92;96.67;97986.97;7282727;40;20264;31
2024/01/02 03:50:18;;;;;;;2.10;1.10;;;;;;;6.94;96.76;97957.31;7278225;40;20244;31
2024/01/02 03:55:53;;;;;;;2.77;1.20;;;;;;;6.89;97.09;97946.31;7291334;39;20327;31
2024/01/02 04:01:14;;;;;;;1.05;0.95;;;;;;;6.94;97.98;97958.16;7301685;39;20255;31
2024/01/02 04:06:49;;;;;;;3.00;1.10;;;;;;;6.96;98.11;97944.59;7316908;39;20236;31
2024/01/02 04:17:29;;;;;;;1.10;0.90;;;;;;;7.00;98.36;97906.59;7264231;40;20320;31
2024/01/02 04:28:10;;;;;;;1.47;1.00;;;;;;;7.04;97.99;97861.53;7289338;39;20275;31
2024/01/02 04:38:50;;;;;;;1.90;1.20;;;;;;;7.08;98.72;97852.13;7268652;40;20272;31
2024/01/02 04:44:27;;;;;;;1.65;0.85;;;;;;;7.05;99.20;97834.56;7320038;39;20267;31
2024/01/02 04:49:48;;;;;;;1.75;0.80;;;;;;;7.09;98.85;97824.31;7259679;40;20265;31
2024/01/02 04:55:24;;;;;;;0.77;0.70;;;;;;;7.05;100.00;97813.13;7257323;40;20355;31
2024/01/02 05:01:00;;;;;;;1.60;0.80;;;;;;;7.11;99.52;97812.41;7290006;40;20264;31
2024/01/02 05:06:36;;;;;;;0.80;0.80;;;;;;;7.10;99.41;97793.84;7278163;39;20333;31
2024/01/02 05:12:13;;;;;;;1.50;1.00;;;;;;;7.10;99.60;97794.69;7260277;39;20250;31
2024/01/02 05:17:34;;;;;;;1.27;1.00;;;;;;;7.19;99.42;97807.00;7182593;40;20258;31
2024/01/02 05:22:54;;;;;;;2.03;0.90;;;;;;;7.21;99.82;97780.00;7217538;40;20238;31
2024/01/02 05:28:30;;;;;;;2.07;1.00;;;;;;;7.22;99.72;97754.88;7219692;40;20280;31
2024/01/02 05:33:50;;;;;;;1.03;0.87;;;;;;;7.25;99.39;97743.78;7207398;39;20255;31
2024/01/02 05:39:25;;;;;;;1.40;0.95;;;;;;;7.31;98.87;97743.09;7280554;39;20240;31
2024/01/02 05:45:01;;;;;;;2.07;0.70;;;;;;;7.31;99.61;97736.87;7267990;39;20401;31
2024/01/02 05:50:21;;;;;;;1.50;0.70;;;;;;;7.32;99.68;97738.56;7215818;40;20370;31
2024/01/02 05:55:41;;;;;;;0.85;0.75;;;;;;;7.34;100.00;97732.00;7244614;40;20331;31
2024/01/02 06:01:15;;;;;;;0.80;0.80;;;;;;;7.36;99.62;97729.13;7233740;40;20465;31
2024/01/02 06:06:33;;;;;;;1.27;0.68;;;;;;;7.45;100.00;97739.59;7067850;40;21145;31
2024/01/02 06:12:08;;;;;;;0.90;0.70;;;;;;;7.47;99.47;97732.19;7273886;40;20320;31
2024/01/02 06:22:49;;;;;;;1.05;0.70;;;;;;;7.51;100.00;97706.69;7267244;39;20275;31
2024/01/02 06:33:14;;;;;;;1.80;1.40;;;;;;;7.54;100.00;97700.97;7304215;39;20268;31
2024/01/02 06:38:52;;;;;;;1.20;1.10;;;;;;;7.58;100.00;97709.47;7303613;39;20373;31
2024/01/02 06:44:13;;;;;;;2.07;1.40;;;;;;;7.70;100.00;97726.75;7290501;39;20341;31
2024/01/02 06:49:34;;;;;;;1.35;1.00;;;;;;;7.80;100.00;97754.16;7235850;40;20260;31
2024/01/02 06:55:09;;;;;;;0.90;0.80;;;;;;;7.90;100.00;97743.94;7228160;40;20237;31
2024/01/02 07:00:29;;;;;;;0.70;0.70;;;;;;;7.98;99.89;97743.03;7229960;39;20376;31
2024/01/02 07:06:04;;;;;;;1.05;0.80;;;;;;;8.04;100.00;97745.78;7243226;40;20410;31
2024/01/02 07:11:40;;;;;;;0.65;0.65;;;;;;;8.07;100.00;97758.84;7263977;39;20256;31
2024/01/02 07:17:01;;;;;;;1.03;0.80;;;;;;;8.12;100.00;97747.53;7220662;40;20318;31
2024/01/02 07:22:21;;;;;;;2.40;2.20;;;;;;;8.16;100.00;97770.31;7198882;40;20256;31
2024/01/02 07:27:58;;;;;;;4.90;1.73;;;;;;;8.20;100.00;97757.38;7281139;40;20250;31
2024/01/02 07:33:19;;;;;;;5.45;1.60;;;;;;;8.27;100.00;97763.62;7277800;39;20240;31
2024/01/02 07:38:55;;;;;;;1.50;1.30;;;;;;;8.30;100.00;97779.38;7284210;39;20334;31
2024/01/02 07:44:28;;;;;;;1.90;1.10;;;;;;;8.35;100.00;97788.56;7249800;40;20477;31
2024/01/02 07:50:04;;;;;;;1.00;0.90;;;;;;;8.42;100.00;97772.53;7221925;40;20240;31
2024/01/02 07:55:24;;;;;;;0.80;0.80;;;;;;;8.44;99.82;97808.06;7207067;40;20380;31
2024/01/02 08:00:58;;;;;;;1.20;1.00;;;;;;;8.46;99.59;97793.47;7266644;39;20249;31
2024/01/02 08:11:37;;;;;;;0.70;0.70;;;;;;;8.62;99.91;97796.94;7264768;40;20750;31
2024/01/02 08:17:14;;;;;;;1.15;0.75;;;;;;;8.62;99.51;97803.12;7217353;40;20263;31
2024/01/02 08:22:34;;;;;;;0.60;0.60;;;;;;;8.66;99.22;97788.31;7310189;39;20241;31
2024/01/02 08:27:54;;;;;;;1.10;0.90;;;;;;;8.70;98.14;97786.91;7361777;39;20258;31
2024/01/02 08:33:32;;;;;;;0.80;0.70;;;;;;;8.69;98.47;97787.91;7289327;40;20360;31
2024/01/02 08:39:03;;;;;;;1.20;1.10;;;;;;;8.74;98.98;97790.03;7256767;40;21318;31
2024/01/02 08:44:39;;;;;;;1.10;0.90;;;;;;;8.75;98.84;97814.03;7249858;40;20241;31
2024/01/02 08:50:16;;;;;;;0.75;0.75;;;;;;;8.81;97.92;97807.91;7216853;40;20368;31
2024/01/02 08:55:37;;;;;;;0.90;0.80;;;;;;;8.87;97.16;97793.72;7224277;40;20376;31
2024/01/02 09:01:12;;;;;;;1.90;0.80;;;;;;;8.87;97.16;97811.69;7249658;40;20235;31
2024/01/02 09:11:54;;;;;;;0.60;0.60;;;;;;;8.96;95.76;97815.91;7324677;39;20412;31
2024/01/02 09:17:15;;;;;;;1.00;0.90;;;;;;;8.98;95.76;97817.41;7297881;40;20260;31
2024/01/02 09:22:47;;;;;;;0.80;0.80;;;;;;;9.00;95.57;97807.28;7307204;39;20245;31
2024/01/02 09:28:25;;;;;;;0.87;0.60;;;;;;;9.04;95.39;97824.69;7258431;40;20256;31
2024/01/02 09:34:00;;;;;;;1.20;0.80;;;;;;;9.02;96.45;97818.69;7268874;40;20284;31
2024/01/02 09:39:36;;;;;;;0.95;0.70;;;;;;;9.04;95.52;97824.69;7238764;40;20242;31
2024/01/02 09:45:10;;;;;;;2.27;0.70;;;;;;;9.07;95.64;97814.59;7216085;40;20359;31
2024/01/02 09:50:47;;;;;;;1.87;0.80;;;;;;;9.05;95.99;97820.97;7239801;40;21483;31
2024/01/02 10:01:28;;;;;;;0.80;0.80;;;;;;;9.11;95.97;97808.66;7212771;40;20274;31
2024/01/02 10:07:07;;;;;;;0.90;0.80;;;;;;;9.14;95.73;97802.03;7179694;40;20534;31
2024/01/02 10:17:50;;;;;;;4.90;3.10;;;;;;;9.16;96.01;97789.25;7229387;40;20274;31
2024/01/02 10:23:26;;;;;;;8.80;6.25;;;;;;;9.17;96.31;97785.56;7272855;40;20253;31
2024/01/02 10:29:01;;;;;;;15.40;10.83;;;;;;;9.14;96.82;97769.78;7294300;39;20249;31
2024/01/02 10:34:38;;;;;;;3.50;2.65;;;;;;;9.12;97.29;97753.88;7296255;40;20355;31
2024/01/02 10:40:12;;;;;;;2.20;1.63;;;;;;;9.08;97.61;97749.06;7257209;39;20279;31
2024/01/02 10:45:50;;;;;;;2.50;2.03;;;;;;;8.93;98.87;97739.22;7235517;40;20274;31
2024/01/02 10:56:30;;;;;;;2.00;1.80;;;;;;;8.92;99.77;97710.69;7238068;40;20415;31
2024/01/02 11:07:06;;;;;;;1.30;1.20;;;;;;;8.98;99.83;97691.09;7309287;39;21536;31
2024/01/02 11:17:45;;;;;;;1.70;1.40;;;;;;;8.88;100.00;97679.84;7342690;39;21399;31
2024/01/02 11:23:22;;;;;;;2.23;1.83;;;;;;;8.83;100.00;97670.69;7315523;39;20376;31
2024/01/02 11:28:57;;;;;;;2.80;2.10;;;;;;;8.81;100.00;97676.28;7324930;39;20371;31
2024/01/02 11:39:36;;;;;;;2.43;2.23;;;;;;;8.84;100.00;97654.41;7314806;39;21456;31
2024/01/02 11:45:12;;;;;;;3.00;2.28;;;;;;;8.80;100.00;97645.06;7224738;40;21598;31
2024/01/02 11:50:45;;;;;;;2.17;1.97;;;;;;;8.83;100.00;97633.09;7269897;40;20238;31
2024/01/02 11:56:22;;;;;;;3.30;2.40;;;;;;;8.83;100.00;97620.50;7286033;39;20268;31
2024/01/02 12:01:59;;;;;;;1.70;1.60;;;;;;;8.87;100.00;97605.63;7243069;39;20385;31
2024/01/02 12:07:35;;;;;;;2.10;1.90;;;;;;;8.91;100.00;97595.31;7229341;40;20347;31
2024/01/02 12:13:11;;;;;;;3.30;3.00;;;;;;;8.95;100.00;97588.56;7244118;40;20324;31
2024/01/02 12:18:49;;;;;;;2.60;2.40;;;;;;;8.96;100.00;97579.44;7209518;40;20241;31
2024/01/02 12:24:25;;;;;;;1.97;1.53;;;;;;;8.99;100.00;97566.44;7237571;40;20241;31
2024/01/02 12:30:04;;;;;;;1.27;1.17;;;;;;;9.03;100.00;97548.09;7267726;40;20262;31
2024/01/02 12:35:40;;;;;;;3.05;1.70;;;;;;;9.13;100.00;97539.69;7238765;40;20246;31
2024/01/02 12:41:15;;;;;;;1.40;1.20;;;;;;;9.15;100.00;97526.88;7239063;40;20457;31
2024/01/02 12:46:50;;;;;;;1.80;1.30;;;;;;;9.14;100.00;97526.03;7216524;40;20368;31
2024/01/02 12:52:27;;;;;;;12.33;9.13;;;;;;;9.22;100.00;97525.03;7199570;40;20390;31
2024/01/02 12:58:01;;;;;;;4.55;4.15;;;;;;;9.26;100.00;97521.75;7217345;40;20343;31
2024/01/02 13:03:35;;;;;;;1.53;1.30;;;;;;;9.38;100.00;97505.88;7239363;40;20237;31
2024/01/02 13:09:10;;;;;;;3.20;1.77;;;;;;;9.39;100.00;97511.03;7225988;40;20241;31
2024/01/02 13:14:44;;;;;;;1.87;1.70;;;;;;;9.39;100.00;97507.56;7238970;40;20264;31
2024/01/02 13:20:22;;;;;;;2.57;1.80;;;;;;;9.40;100.00;97495.75;6932515;40;20250;31
2024/01/02 13:25:57;;;;;;;2.27;1.60;;;;;;;9.42;100.00;97507.97;7164663;40;20278;31
2024/01/02 13:31:56;;;;;;;3.20;2.30;;;;;;;9.41;100.00;97502.78;7149648;40;20278;31
2024/01/02 13:37:37;;;;;;;1.80;1.30;;;;;;;9.43;100.00;97506.13;7175502;40;20278;31
2024/01/02 13:43:13;;;;;;;1.90;1.40;;;;;;;9.43;100.00;97509.63;7201233;40;20305;31
2024/01/02 13:48:48;;;;;;;2.33;1.20;;;;;;;9.45;100.00;97509.41;7196630;40;20397;31
2024/01/02 13:54:21;;;;;;;1.50;1.25;;;;;;;9.44;100.00;97495.16;7198155;40;20246;31
2024/01/02 13:59:55;;;;;;;1.70;1.60;;;;;;;9.48;100.00;97500.94;7167514;40;20371;31
2024/01/02 14:05:30;;;;;;;2.00;1.40;;;;;;;9.44;100.00;97499.69;7156090;40;20457;31
2024/01/02 14:11:07;;;;;;;2.00;1.65;;;;;;;9.45;100.00;97490.59;7224810;39;20255;31
2024/01/02 14:16:44;;;;;;;1.60;1.37;;;;;;;9.46;100.00;97476.13;7237337;40;20384;31
2024/01/02 14:22:25;;;;;;;0.90;0.90;;;;;;;9.46;100.00;97490.41;7237424;40;20340;31
2024/01/02 14:28:05;;;;;;;1.95;1.50;;;;;;;9.47;100.00;97472.41;7217888;40;20253;31
2024/01/02 14:33:40;;;;;;;1.20;1.10;;;;;;;9.48;100.00;97450.69;7225974;40;20262;31
2024/01/02 14:39:16;;;;;;;1.60;1.20;;;;;;;9.52;100.00;97447.59;7251384;40;20242;31
2024/01/02 14:44:56;;;;;;;2.00;1.30;;;;;;;9.51;100.00;97446.78;7227120;40;20321;31
2024/01/02 14:50:32;;;;;;;2.00;1.40;;;;;;;9.50;100.00;97448.63;7246197;40;20394;31
2024/01/02 14:56:08;;;;;;;1.05;0.95;;;;;;;9.52;100.00;97435.00;7226260;40;20224;31
2024/01/02 15:01:45;;;;;;;0.85;0.75;;;;;;;9.55;100.00;97410.37;7208019;40;20256;31
2024/01/02 15:07:20;;;;;;;1.10;1.00;;;;;;;9.55;99.90;97409.53;7208630;40;20396;31
2024/01/02 15:12:57;;;;;;;1.20;1.10;;;;;;;9.59;99.86;97408.94;7199536;40;20381;31
2024/01/02 15:18:39;;;;;;;4.00;3.70;;;;;;;9.56;100.00;97393.22;7098291;40;21350;31
2024/01/02 15:24:15;;;;;;;1.97;1.77;;;;;;;9.60;99.78;97394.47;7252569;39;20254;31
2024/01/02 15:29:51;;;;;;;1.47;1.20;;;;;;;9.64;99.80;97394.87;7247533;40;21388;31
2024/01/02 15:35:29;;;;;;;2.47;1.00;;;;;;;9.65;100.00;97381.22;7222612;40;20311;31
2024/01/02 15:41:04;;;;;;;2.50;2.20;;;;;;;9.64;100.00;97366.13;7217738;40;20253;31
2024/01/02 15:46:40;;;;;;;2.10;1.80;;;;;;;9.65;100.00;97359.72;7227383;40;20258;31
2024/01/02 15:52:17;;;;;;;1.90;1.60;;;;;;;9.65;100.00;97342.72;7206810;40;20320;31
2024/01/02 15:57:52;;;;;;;2.60;2.10;;;;;;;9.67;100.00;97336.09;7194349;40;20330;31
2024/01/02 16:03:59;;;;;;;3.53;2.10;;;;;;;9.67;100.00;97319.97;7258987;40;20242;31
2024/01/02 16:09:54;;;;;;;11.40;10.40;;;;;;;9.60;100.00;97312.94;7258636;40;20354;31
2024/01/02 16:15:38;;;;;;;9.60;8.70;;;;;;;9.50;100.00;97292.66;7214591;40;20317;31
2024/01/02 16:21:23;;;;;;;7.87;7.10;;;;;;;9.47;100.00;97286.88;7161159;40;20391;31
2024/01/02 16:27:21;;;;;;;15.57;13.97;;;;;;;9.44;100.00;97295.31;7119845;40;20247;31
2024/01/02 16:32:58;;;;;;;12.10;9.43;;;;;;;9.43;100.00;97280.25;7130399;40;20282;31
2024/01/02 16:38:40;;;;;;;4.73;3.50;;;;;;;9.43;100.00;97283.75;7248830;40;21444;31
2024/01/02 16:44:16;;;;;;;7.20;6.50;;;;;;;9.45;100.00;97270.94;7237948;40;20341;31
2024/01/02 16:49:51;;;;;;;5.73;5.00;;;;;;;9.44;100.00;97263.88;7220858;40;20446;31
2024/01/02 16:55:26;;;;;;;8.30;7.50;;;;;;;9.46;100.00;97259.16;7167358;40;20381;31
2024/01/02 17:01:03;;;;;;;17.57;13.03;;;;;;;9.47;100.00;97252.75;7158135;40;20245;31
2024/01/02 17:06:38;;;;;;;31.60;20.13;;;;;;;9.47;100.00;97239.31;7165980;40;20253;31
2024/01/02 17:12:13;;;;;;;9.23;7.60;;;;;;;9.46;100.00;97226.06;7161157;40;20246;31
2024/01/02 17:17:48;;;;;;;3.57;3.23;;;;;;;9.47;100.00;97211.56;7186007;40;20261;31
2024/01/02 17:23:23;;;;;;;8.10;7.40;;;;;;;9.43;100.00;97200.38;7120293;40;20287;31
2024/01/02 17:29:06;;;;;;;2.37;2.13;;;;;;;9.43;100.00;97194.22;7171268;40;20247;31
2024/01/02 17:34:43;;;;;;;1.83;1.53;;;;;;;9.46;100.00;97183.03;7144642;40;20254;31
2024/01/02 17:40:19;;;;;;;2.20;1.50;;;;;;;9.50;100.00;97170.81;7216678;40;20408;31
2024/01/02 17:45:51;;;;;;;1.90;1.45;;;;;;;9.46;100.00;97181.16;7222864;40;20231;31
2024/01/02 17:51:28;;;;;;;2.37;1.60;;;;;;;9.46;100.00;97173.09;7208413;40;20403;31
2024/01/02 17:57:02;;;;;;;3.63;1.60;;;;;;;9.50;100.00;97184.25;7156427;40;20532;31
2024/01/02 18:02:38;;;;;;;3.30;1.70;;;;;;;9.48;100.00;97151.34;7199755;40;20237;31
2024/01/02 18:08:17;;;;;;;1.80;1.70;;;;;;;9.53;100.00;97167.69;7214634;40;20289;31
2024/01/02 18:18:59;;;;;;;1.70;1.20;;;;;;;9.83;100.00;97154.56;7254186;40;20766;31
2024/01/02 18:29:55;;;;;;;1.20;1.10;;;;;;;9.86;100.00;97146.94;7265681;40;21304;31
2024/01/02 18:40:35;;;;;;;0.93;0.90;;;;;;;9.97;100.00;97142.72;7302752;39;20707;31
2024/01/02 18:46:12;;;;;;;1.40;1.00;;;;;;;10.04;100.00;97175.03;7256688;40;20246;31
2024/01/02 18:51:49;;;;;;;1.10;1.00;;;;;;;10.06;100.00;97156.78;7222731;40;20238;31
2024/01/02 18:57:23;;;;;;;0.90;0.90;;;;;;;10.05;100.00;97163.22;7211510;40;20313;31
2024/01/02 19:03:04;;;;;;;1.25;0.95;;;;;;;10.10;100.00;97164.22;7210727;40;20314;31
2024/01/02 19:08:25;;;;;;;1.60;1.20;;;;;;;10.15;99.66;97166.25;7209614;40;20246;31
2024/01/02 19:14:02;;;;;;;0.90;0.90;;;;;;;10.18;98.49;97168.56;7236959;40;20242;31
2024/01/02 19:19:35;;;;;;;0.90;0.90;;;;;;;10.19;97.82;97141.44;7246461;40;20269;31
2024/01/02 19:25:11;;;;;;;1.15;0.90;;;;;;;10.21;97.77;97178.91;7258451;40;20245;31
2024/01/02 19:30:28;;;;;;;0.60;0.60;;;;;;;10.24;97.34;97162.31;7044556;40;20434;31
2024/01/02 19:36:05;;;;;;;1.10;1.00;;;;;;;10.22;97.01;97162.53;7244650;40;20259;31
2024/01/02 19:41:25;;;;;;;1.20;1.00;;;;;;;10.22;97.98;97134.81;7176857;40;20691;31
2024/01/02 19:46:45;;;;;;;1.10;0.90;;;;;;;10.20;97.57;97166.47;7183430;40;20270;31
2024/01/02 19:57:24;;;;;;;2.10;1.17;;;;;;;10.23;96.18;97164.19;7340736;39;20733;31
2024/01/02 20:08:04;;;;;;;1.40;1.30;;;;;;;10.23;95.64;97152.59;7336860;39;20890;31
2024/01/02 20:18:57;;;;;;;1.80;1.20;;;;;;;10.22;94.86;97148.25;7274045;40;20268;31
2024/01/02 20:30:06;;;;;;;1.03;0.90;;;;;;;10.26;93.76;97154.88;7298744;39;20844;31
2024/01/02 20:35:43;;;;;;;1.60;1.15;;;;;;;10.27;93.48;97173.47;7276547;40;20258;31
2024/01/02 20:41:18;;;;;;;4.90;1.33;;;;;;;10.33;92.99;97190.66;7220622;40;20261;31
2024/01/02 20:46:54;;;;;;;1.30;1.20;;;;;;;10.32;92.77;97194.38;7214490;40;20250;31
2024/01/02 20:52:27;;;;;;;1.45;1.30;;;;;;;10.33;92.14;97180.72;7199050;40;20262;31
2024/01/02 20:57:47;;;;;;;1.90;1.40;;;;;;;10.38;91.66;97205.13;7232383;40;20399;31
2024/01/02 21:03:07;;;;;;;2.00;1.70;;;;;;;10.34;92.30;97203.09;7237493;40;20251;31
2024/01/02 21:08:44;;;;;;;1.80;1.57;;;;;;;10.27;92.73;97210.34;7209236;40;20240;31
2024/01/02 21:14:20;;;;;;;2.40;1.30;;;;;;;10.30;92.62;97218.84;7206275;40;20257;31
2024/01/02 21:19:58;;;;;;;1.45;1.20;;;;;;;10.30;92.36;97271.87;7237814;40;20371;31
2024/01/02 21:25:33;;;;;;;1.80;1.40;;;;;;;10.28;92.76;97239.75;7280452;39;20371;31
2024/01/02 21:30:54;;;;;;;1.40;1.30;;;;;;;10.29;93.16;97232.50;7236557;40;20403;31
2024/01/02 21:36:14;;;;;;;1.92;1.30;;;;;;;10.31;92.62;97235.84;7257548;39;20351;31
2024/01/02 21:41:49;;;;;;;1.43;1.33;;;;;;;10.31;92.22;97247.41;7273775;39;20258;31
2024/01/02 21:47:28;;;;;;;1.90;1.30;;;;;;;10.28;91.70;97260.47;7254461;39;20331;31
2024/01/02 21:53:06;;;;;;;2.50;1.30;;;;;;;10.26;92.71;97259.88;7229833;40;20238;31
2024/01/02 21:58:45;;;;;;;1.90;1.30;;;;;;;10.25;92.72;97260.91;7206661;40;20242;31
2024/01/02 22:04:17;;;;;;;2.75;1.10;;;;;;;10.29;93.39;97272.91;7195890;40;20283;31
2024/01/02 22:09:52;;;;;;;1.06;0.98;;;;;;;10.24;92.92;97283.47;7187903;40;21295;31
2024/01/02 22:15:33;;;;;;;1.43;1.07;;;;;;;10.22;93.03;97280.97;7176759;40;20310;31
2024/01/02 22:21:09;;;;;;;1.75;1.10;;;;;;;10.22;93.20;97277.50;7277997;40;20249;31
2024/01/02 22:26:45;;;;;;;1.20;0.90;;;;;;;10.26;92.79;97303.78;7227093;40;20373;31
2024/01/02 22:32:22;;;;;;;1.80;1.07;;;;;;;10.26;92.21;97303.78;7192635;40;20251;31
2024/01/02 22:37:42;;;;;;;2.15;1.50;;;;;;;10.33;91.77;97314.53;7177948;40;20245;31
2024/01/02 22:43:03;;;;;;;1.80;1.10;;;;;;;10.38;91.24;97303.94;7179121;40;20309;31
2024/01/02 22:48:36;;;;;;;2.00;1.00;;;;;;;10.35;91.24;97307.06;7218900;40;20258;31
2024/01/02 22:53:58;;;;;;;1.10;1.00;;;;;;;10.36;91.41;97319.47;7235371;39;20614;31
2024/01/02 22:59:33;;;;;;;1.80;1.00;;;;;;;10.35;90.67;97326.75;7259331;40;20338;31
2024/01/02 23:05:10;;;;;;;1.20;0.90;;;;;;;10.36;90.03;97362.56;7228507;40;20327;31
2024/01/02 23:10:45;;;;;;;1.20;1.00;;;;;;;10.36;90.65;97338.31;7188959;40;20440;31
2024/01/02 23:16:20;;;;;;;1.20;1.10;;;;;;;10.33;90.86;97349.53;7202323;40;20267;31
2024/01/02 23:21:57;;;;;;;1.50;0.93;;;;;;;10.34;90.74;97338.56;7160702;40;20334;31
2024/01/02 23:27:31;;;;;;;2.00;0.80;;;;;;;10.32;91.72;97358.63;7120731;40;20251;31
2024/01/02 23:33:10;;;;;;;1.10;1.00;;;;;;;10.25;92.28;97384.75;7128239;40;20466;31
2024/01/02 23:38:44;;;;;;;0.93;0.93;;;;;;;10.18;92.22;97347.06;7166698;40;20255;31
2024/01/02 23:44:19;;;;;;;1.03;0.93;;;;;;;10.11;92.50;97346.22;7187454;40;20235;31
2024/01/02 23:49:54;;;;;;;0.80;0.80;;;;;;;10.09;91.88;97340.19;7158271;40;20258;31
2024/01/02 23:55:28;;;;;;;2.13;0.90;;;;;;;9.95;92.71;97350.19;7176984;40;20243;31
